createdAt,value
2019-05-29T00:01:19.854Z,11.74
2019-05-29T00:03:45.061Z,11.73
2019-05-29T00:06:14.336Z,11.68
2019-05-29T00:08:42.841Z,11.67
2019-05-29T00:11:12.240Z,11.71
2019-05-29T00:13:40.618Z,11.72
2019-05-29T00:16:09.006Z,11.71
2019-05-29T00:18:38.471Z,11.71
2019-05-29T00:21:06.859Z,11.68
2019-05-29T00:23:35.249Z,11.66
2019-05-29T00:26:03.703Z,11.64
2019-05-29T00:28:32.090Z,11.63
2019-05-29T00:31:00.476Z,11.56
2019-05-29T00:33:28.868Z,11.59
2019-05-29T00:35:57.250Z,11.49
2019-05-29T00:38:25.672Z,11.57
2019-05-29T00:40:54.059Z,11.57
2019-05-29T00:43:22.461Z,11.55
2019-05-29T00:45:50.924Z,11.55
2019-05-29T00:48:19.314Z,11.52
2019-05-29T00:50:47.803Z,11.51
2019-05-29T00:53:16.443Z,11.48
2019-05-29T00:55:44.833Z,11.47
2019-05-29T00:58:13.228Z,11.45
2019-05-29T01:00:41.642Z,11.42
2019-05-29T01:03:10.025Z,11.40
2019-05-29T01:05:38.423Z,11.41
2019-05-29T01:08:06.800Z,11.42
2019-05-29T01:10:35.433Z,11.44
2019-05-29T01:13:03.897Z,11.44
2019-05-29T01:15:32.287Z,11.42
2019-05-29T01:18:00.676Z,11.42
2019-05-29T01:20:29.061Z,11.39
2019-05-29T01:22:57.522Z,11.37
2019-05-29T01:25:25.972Z,11.37
2019-05-29T01:27:54.364Z,11.32
2019-05-29T01:30:23.431Z,11.31
2019-05-29T01:32:51.880Z,11.29
2019-05-29T01:35:20.352Z,11.19
2019-05-29T01:37:48.736Z,11.17
2019-05-29T01:40:23.123Z,11.14
2019-05-29T01:42:49.882Z,11.12
2019-05-29T01:45:17.568Z,11.09
2019-05-29T01:47:45.957Z,11.09
2019-05-29T01:50:15.556Z,11.08
2019-05-29T01:52:44.016Z,11.10
2019-05-29T01:55:12.506Z,11.06
2019-05-29T01:57:40.915Z,11.05
2019-05-29T02:00:10.101Z,11.03
2019-05-29T02:02:38.590Z,10.99
2019-05-29T02:05:07.315Z,10.97
2019-05-29T02:07:35.822Z,10.97
2019-05-29T02:10:06.728Z,10.93
2019-05-29T02:12:35.156Z,10.91
2019-05-29T02:15:04.994Z,10.87
2019-05-29T02:17:33.397Z,10.87
2019-05-29T02:20:01.813Z,10.84
2019-05-29T02:22:30.207Z,10.83
2019-05-29T02:24:58.620Z,10.82
2019-05-29T02:27:27.738Z,10.83
2019-05-29T02:29:56.331Z,10.87
2019-05-29T02:32:25.557Z,10.86
2019-05-29T02:34:54.070Z,10.87
2019-05-29T02:37:22.454Z,10.86
2019-05-29T02:39:50.871Z,10.84
2019-05-29T02:42:20.865Z,10.85
2019-05-29T02:44:49.504Z,10.87
2019-05-29T02:47:19.279Z,10.93
2019-05-29T02:49:47.930Z,10.95
2019-05-29T02:52:16.319Z,10.98
2019-05-29T02:54:44.711Z,11.00
2019-05-29T02:57:13.183Z,10.97
2019-05-29T02:59:41.575Z,10.95
2019-05-29T03:02:09.967Z,10.89
2019-05-29T03:04:38.374Z,10.84
2019-05-29T03:07:07.016Z,10.78
2019-05-29T03:09:35.394Z,10.74
2019-05-29T03:12:03.848Z,10.74
2019-05-29T03:14:34.333Z,10.76
2019-05-29T03:17:02.353Z,10.77
2019-05-29T03:19:32.370Z,10.69
2019-05-29T03:22:00.985Z,10.66
2019-05-29T03:24:30.818Z,10.63
2019-05-29T03:26:59.677Z,10.66
2019-05-29T03:29:29.654Z,10.68
2019-05-29T03:31:58.398Z,10.66
2019-05-29T03:34:31.064Z,10.64
2019-05-29T03:36:57.040Z,10.65
2019-05-29T03:39:26.397Z,10.66
2019-05-29T03:41:54.843Z,10.67
2019-05-29T03:44:23.249Z,10.66
2019-05-29T03:46:51.647Z,10.67
2019-05-29T03:49:20.032Z,10.68
2019-05-29T03:51:48.428Z,10.68
2019-05-29T03:54:16.896Z,10.65
2019-05-29T03:56:45.344Z,10.68
2019-05-29T03:59:13.760Z,10.72
2019-05-29T04:01:42.139Z,10.76
2019-05-29T04:04:10.526Z,10.77
2019-05-29T04:06:38.908Z,10.73
2019-05-29T04:09:07.369Z,10.65
2019-05-29T04:11:37.921Z,10.63
2019-05-29T04:14:06.721Z,10.67
2019-05-29T04:16:54.008Z,10.75
2019-05-29T04:19:06.538Z,10.75
2019-05-29T04:21:38.436Z,10.73
2019-05-29T04:24:06.972Z,10.72
2019-05-29T04:26:38.443Z,10.68
2019-05-29T04:29:06.940Z,10.65
2019-05-29T04:31:36.526Z,10.64
2019-05-29T04:34:05.448Z,10.61
2019-05-29T04:36:34.867Z,10.63
2019-05-29T04:39:04.907Z,10.65
2019-05-29T04:41:34.657Z,10.69
2019-05-29T04:44:03.149Z,10.71
2019-05-29T04:46:31.770Z,10.68
2019-05-29T04:49:00.195Z,10.69
2019-05-29T04:51:29.079Z,10.68
2019-05-29T04:53:57.609Z,10.73
2019-05-29T04:56:25.998Z,10.79
2019-05-29T04:58:54.413Z,10.80
2019-05-29T05:01:22.821Z,10.79
2019-05-29T05:03:51.272Z,10.78
2019-05-29T05:06:19.758Z,10.78
2019-05-29T05:08:48.279Z,10.82
2019-05-29T05:11:17.015Z,10.84
2019-05-29T05:13:46.089Z,10.88
2019-05-29T05:16:14.550Z,10.93
2019-05-29T05:18:42.956Z,11.02
2019-05-29T05:21:11.418Z,10.99
2019-05-29T05:23:40.509Z,10.95
2019-05-29T05:26:09.212Z,10.84
2019-05-29T05:28:38.614Z,10.83
2019-05-29T05:31:06.988Z,10.86
2019-05-29T05:33:36.632Z,10.90
2019-05-29T05:36:05.255Z,10.91
2019-05-29T05:38:34.661Z,10.87
2019-05-29T05:41:03.228Z,10.82
2019-05-29T05:43:32.820Z,10.92
2019-05-29T05:46:01.441Z,10.94
2019-05-29T05:48:30.892Z,10.97
2019-05-29T05:50:59.370Z,10.97
2019-05-29T05:53:27.909Z,10.94
2019-05-29T05:55:56.326Z,11.00
2019-05-29T05:58:24.730Z,11.01
2019-05-29T06:00:53.121Z,11.04
2019-05-29T06:03:21.581Z,11.13
2019-05-29T06:05:50.016Z,11.19
2019-05-29T06:08:18.512Z,11.23
2019-05-29T06:10:46.927Z,11.27
2019-05-29T06:13:15.330Z,11.00
2019-05-29T06:15:43.840Z,10.85
2019-05-29T06:18:21.109Z,10.74
2019-05-29T06:20:43.229Z,10.61
2019-05-29T06:23:11.670Z,10.60
2019-05-29T06:25:40.773Z,10.59
2019-05-29T06:28:10.315Z,10.64
2019-05-29T06:30:40.686Z,10.69
2019-05-29T06:33:08.899Z,10.77
2019-05-29T06:35:37.625Z,10.79
2019-05-29T06:38:06.101Z,10.81
2019-05-29T06:40:38.321Z,10.90
2019-05-29T06:43:11.256Z,10.81
2019-05-29T06:45:38.372Z,10.83
2019-05-29T06:48:08.697Z,10.92
2019-05-29T06:50:37.481Z,10.92
2019-05-29T06:53:05.949Z,11.01
2019-05-29T06:55:35.667Z,11.13
2019-05-29T06:58:04.349Z,11.09
2019-05-29T07:00:35.518Z,11.06
2019-05-29T07:03:02.958Z,11.15
2019-05-29T07:05:31.386Z,11.15
2019-05-29T07:08:13.313Z,11.18
2019-05-29T07:10:29.976Z,11.19
2019-05-29T07:12:58.374Z,11.23
2019-05-29T07:15:26.804Z,11.25
2019-05-29T07:17:55.189Z,11.23
2019-05-29T07:20:23.645Z,11.27
2019-05-29T07:22:52.061Z,11.33
2019-05-29T07:25:20.430Z,11.34
2019-05-29T07:27:48.825Z,11.42
2019-05-29T07:30:18.758Z,11.54
2019-05-29T07:32:56.654Z,11.60
2019-05-29T07:35:17.340Z,11.57
2019-05-29T07:37:46.029Z,11.63
2019-05-29T07:40:14.641Z,11.76
2019-05-29T07:42:49.751Z,11.79
2019-05-29T07:45:13.869Z,11.89
2019-05-29T07:47:42.745Z,11.92
2019-05-29T07:50:11.680Z,11.89
2019-05-29T07:52:40.855Z,11.83
2019-05-29T07:55:09.949Z,11.84
2019-05-29T07:57:38.860Z,11.88
2019-05-29T08:00:08.459Z,11.81
2019-05-29T08:02:36.855Z,11.88
2019-05-29T08:05:06.708Z,11.87
2019-05-29T08:07:35.101Z,11.92
2019-05-29T08:10:05.473Z,11.81
2019-05-29T08:12:33.873Z,11.82
2019-05-29T08:15:02.344Z,11.78
2019-05-29T08:17:30.729Z,11.82
2019-05-29T08:20:06.568Z,11.85
2019-05-29T08:22:34.120Z,11.89
2019-05-29T08:24:59.453Z,11.94
2019-05-29T08:27:27.845Z,12.03
2019-05-29T08:29:56.316Z,12.07
2019-05-29T08:32:24.757Z,12.11
2019-05-29T08:34:53.124Z,12.13
2019-05-29T08:37:21.516Z,12.09
2019-05-29T08:39:51.580Z,12.04
2019-05-29T08:42:23.304Z,12.02
2019-05-29T08:44:50.258Z,12.04
2019-05-29T08:47:18.926Z,12.03
2019-05-29T08:49:50.874Z,11.96
2019-05-29T08:52:17.504Z,11.91
2019-05-29T08:54:46.067Z,11.91
2019-05-29T08:57:14.412Z,11.93
2019-05-29T08:59:44.328Z,11.95
2019-05-29T09:02:12.806Z,11.94
2019-05-29T09:04:42.916Z,11.91
2019-05-29T09:07:11.349Z,12.00
2019-05-29T09:09:39.737Z,12.03
2019-05-29T09:12:08.118Z,12.08
2019-05-29T09:14:36.523Z,12.12
2019-05-29T09:17:04.965Z,12.14
2019-05-29T09:19:33.324Z,12.10
2019-05-29T09:22:01.711Z,12.05
2019-05-29T09:24:30.105Z,12.02
2019-05-29T09:26:58.497Z,11.91
2019-05-29T09:29:26.876Z,11.88
2019-05-29T09:31:55.265Z,11.78
2019-05-29T09:34:24.373Z,11.78
2019-05-29T09:36:55.759Z,11.78
2019-05-29T09:39:23.040Z,11.74
2019-05-29T09:41:51.437Z,11.67
2019-05-29T09:44:36.089Z,11.71
2019-05-29T09:46:49.932Z,11.68
2019-05-29T09:49:18.558Z,11.65
2019-05-29T09:51:48.484Z,11.59
2019-05-29T09:54:16.919Z,11.47
2019-05-29T09:56:45.335Z,11.48
2019-05-29T09:59:13.723Z,11.41
2019-05-29T10:01:42.102Z,11.56
2019-05-29T10:04:10.494Z,11.57
2019-05-29T10:06:38.867Z,11.64
2019-05-29T10:09:09.197Z,11.61
2019-05-29T10:11:37.911Z,11.69
2019-05-29T10:14:06.558Z,11.81
2019-05-29T10:16:34.954Z,11.82
2019-05-29T10:19:03.838Z,11.78
2019-05-29T10:21:41.533Z,11.91
2019-05-29T10:24:04.134Z,12.00
2019-05-29T10:26:32.760Z,11.99
2019-05-29T10:29:08.326Z,12.05
2019-05-29T10:31:31.240Z,11.90
2019-05-29T10:33:59.704Z,11.89
2019-05-29T10:36:28.290Z,12.04
2019-05-29T10:38:56.622Z,12.03
2019-05-29T10:41:25.008Z,12.06
2019-05-29T10:43:53.462Z,12.12
2019-05-29T10:46:21.783Z,12.02
2019-05-29T10:48:52.838Z,12.01
2019-05-29T10:51:20.359Z,12.12
2019-05-29T10:53:50.355Z,12.05
2019-05-29T10:56:21.189Z,12.11
2019-05-29T10:58:55.725Z,12.22
2019-05-29T11:01:19.087Z,12.30
2019-05-29T11:03:47.458Z,12.39
2019-05-29T11:06:15.868Z,12.47
2019-05-29T11:08:44.250Z,12.47
2019-05-29T11:11:12.639Z,12.49
2019-05-29T11:13:41.044Z,12.50
2019-05-29T11:16:09.428Z,12.52
2019-05-29T11:18:37.811Z,12.61
2019-05-29T11:21:06.269Z,12.69
2019-05-29T11:23:34.658Z,12.79
2019-05-29T11:26:03.042Z,12.73
2019-05-29T11:28:31.430Z,12.76
2019-05-29T11:31:06.128Z,12.82
2019-05-29T11:33:29.934Z,12.84
2019-05-29T11:36:10.050Z,12.86
2019-05-29T11:38:28.523Z,12.97
2019-05-29T11:41:19.885Z,12.93
2019-05-29T11:43:27.199Z,12.83
2019-05-29T11:45:55.582Z,12.86
2019-05-29T11:48:23.972Z,12.93
2019-05-29T11:50:52.349Z,12.90
2019-05-29T11:53:20.736Z,12.84
2019-05-29T11:55:49.115Z,12.82
2019-05-29T11:58:30.619Z,12.68
2019-05-29T12:00:47.688Z,12.66
2019-05-29T12:03:16.078Z,12.60
2019-05-29T12:05:44.488Z,12.52
2019-05-29T12:08:12.885Z,12.50
2019-05-29T12:10:41.294Z,12.50
2019-05-29T12:13:09.742Z,12.47
2019-05-29T12:15:38.127Z,12.33
2019-05-29T12:18:23.045Z,12.43
2019-05-29T12:20:37.002Z,12.55
2019-05-29T12:23:23.779Z,12.55
2019-05-29T12:25:35.547Z,12.45
2019-05-29T12:28:04.308Z,12.39
2019-05-29T12:30:34.337Z,12.42
2019-05-29T12:33:03.260Z,12.65
2019-05-29T12:35:31.673Z,12.81
2019-05-29T12:38:01.394Z,12.93
2019-05-29T12:40:29.834Z,13.05
2019-05-29T12:42:59.998Z,13.10
2019-05-29T12:45:28.327Z,13.20
2019-05-29T12:47:58.195Z,13.21
2019-05-29T12:50:27.118Z,13.23
2019-05-29T12:52:55.775Z,13.10
2019-05-29T12:55:24.266Z,13.03
2019-05-29T12:57:53.840Z,12.93
2019-05-29T13:00:22.339Z,12.83
2019-05-29T13:02:50.730Z,12.78
2019-05-29T13:05:20.879Z,12.79
2019-05-29T13:07:49.544Z,12.92
2019-05-29T13:10:29.875Z,12.98
2019-05-29T13:12:48.931Z,13.14
2019-05-29T13:15:18.027Z,13.13
2019-05-29T13:17:46.411Z,13.00
2019-05-29T13:20:21.453Z,12.96
2019-05-29T13:22:45.459Z,13.09
2019-05-29T13:25:14.279Z,13.15
2019-05-29T13:27:42.752Z,13.07
2019-05-29T13:30:13.475Z,13.05
2019-05-29T13:32:42.286Z,12.89
2019-05-29T13:35:12.647Z,12.85
2019-05-29T13:37:41.033Z,12.83
2019-05-29T13:40:09.756Z,12.89
2019-05-29T13:42:38.207Z,12.95
2019-05-29T13:45:16.893Z,13.02
2019-05-29T13:47:37.739Z,12.97
2019-05-29T13:50:11.745Z,13.08
2019-05-29T13:52:37.278Z,13.18
2019-05-29T13:55:07.830Z,13.26
2019-05-29T13:57:39.539Z,13.32
2019-05-29T14:00:30.203Z,13.28
2019-05-29T14:02:38.930Z,13.25
2019-05-29T14:05:08.771Z,13.19
2019-05-29T14:07:37.395Z,13.10
2019-05-29T14:10:07.768Z,13.10
2019-05-29T14:12:37.641Z,13.20
2019-05-29T14:15:09.991Z,13.29
2019-05-29T14:17:38.390Z,13.25
2019-05-29T14:20:09.115Z,13.27
2019-05-29T14:22:37.577Z,13.25
2019-05-29T14:25:07.523Z,13.11
2019-05-29T14:27:35.960Z,13.11
2019-05-29T14:30:08.455Z,13.16
2019-05-29T14:32:37.519Z,13.09
2019-05-29T14:35:07.769Z,13.13
2019-05-29T14:37:37.049Z,13.11
2019-05-29T14:40:07.757Z,13.11
2019-05-29T14:42:36.350Z,13.08
2019-05-29T14:45:08.520Z,13.03
2019-05-29T14:47:36.923Z,13.06
2019-05-29T14:50:06.827Z,13.05
2019-05-29T14:52:35.203Z,13.04
2019-05-29T14:55:04.724Z,13.05
2019-05-29T14:57:33.127Z,12.97
2019-05-29T15:00:06.572Z,12.95
2019-05-29T15:02:31.763Z,12.95
2019-05-29T15:05:00.150Z,12.94
2019-05-29T15:07:28.529Z,12.89
2019-05-29T15:09:56.914Z,12.90
2019-05-29T15:12:25.310Z,12.83
2019-05-29T15:14:53.687Z,12.85
2019-05-29T15:17:22.076Z,12.83
2019-05-29T15:19:50.483Z,12.85
2019-05-29T15:22:18.878Z,12.84
2019-05-29T15:25:01.513Z,12.87
2019-05-29T15:27:17.378Z,12.93
2019-05-29T15:29:45.765Z,12.99
2019-05-29T15:32:14.610Z,13.04
2019-05-29T15:34:43.006Z,13.07
2019-05-29T15:37:13.679Z,13.05
2019-05-29T15:39:41.513Z,13.00
2019-05-29T15:42:10.892Z,12.95
2019-05-29T15:44:39.265Z,12.96
2019-05-29T15:47:08.758Z,12.94
2019-05-29T15:49:37.243Z,12.99
2019-05-29T15:52:06.960Z,13.04
2019-05-29T15:54:35.412Z,13.04
2019-05-29T15:57:03.791Z,13.08
2019-05-29T15:59:32.178Z,12.98
2019-05-29T16:02:00.568Z,12.98
2019-05-29T16:04:29.056Z,12.96
2019-05-29T16:06:57.459Z,12.99
2019-05-29T16:09:25.874Z,12.95
2019-05-29T16:11:54.273Z,13.00
2019-05-29T16:14:22.655Z,13.02
2019-05-29T16:16:51.044Z,13.01
2019-05-29T16:19:19.424Z,13.00
2019-05-29T16:21:47.810Z,13.07
2019-05-29T16:24:16.803Z,13.08
2019-05-29T16:26:45.230Z,13.11
2019-05-29T16:29:15.999Z,13.13
2019-05-29T16:31:43.993Z,13.16
2019-05-29T16:34:12.435Z,13.16
2019-05-29T16:36:40.825Z,13.15
2019-05-29T16:39:09.386Z,13.16
2019-05-29T16:41:37.941Z,13.19
2019-05-29T16:44:06.503Z,13.18
2019-05-29T16:46:34.888Z,13.22
2019-05-29T16:49:03.283Z,13.35
2019-05-29T16:51:31.732Z,13.38
2019-05-29T16:54:00.134Z,13.46
2019-05-29T16:56:28.565Z,13.42
2019-05-29T16:58:56.968Z,13.44
2019-05-29T17:01:25.371Z,13.42
2019-05-29T17:03:53.762Z,13.45
2019-05-29T17:06:22.498Z,13.57
2019-05-29T17:08:51.088Z,13.46
2019-05-29T17:11:20.374Z,13.52
2019-05-29T17:13:48.792Z,13.52
2019-05-29T17:16:18.460Z,13.64
2019-05-29T17:18:47.092Z,13.69
2019-05-29T17:21:16.508Z,13.71
2019-05-29T17:23:44.882Z,13.65
2019-05-29T17:26:14.560Z,13.57
2019-05-29T17:28:43.085Z,13.55
2019-05-29T17:31:11.515Z,13.55
2019-05-29T17:33:39.912Z,13.46
2019-05-29T17:36:08.407Z,13.46
2019-05-29T17:38:36.741Z,13.40
2019-05-29T17:41:05.311Z,13.37
2019-05-29T17:43:33.707Z,13.36
2019-05-29T17:46:02.117Z,13.38
2019-05-29T17:48:30.513Z,13.34
2019-05-29T17:50:58.926Z,13.31
2019-05-29T17:53:27.423Z,13.33
2019-05-29T17:55:55.817Z,13.30
2019-05-29T17:58:25.021Z,13.17
2019-05-29T18:00:54.479Z,13.29
2019-05-29T18:03:22.879Z,13.28
2019-05-29T18:05:51.284Z,13.29
2019-05-29T18:08:20.711Z,13.29
2019-05-29T18:10:49.202Z,13.27
2019-05-29T18:13:17.588Z,13.23
2019-05-29T18:15:46.029Z,13.24
2019-05-29T18:18:14.417Z,13.22
2019-05-29T18:20:42.822Z,13.20
2019-05-29T18:23:11.207Z,13.15
2019-05-29T18:25:39.649Z,12.85
2019-05-29T18:28:08.051Z,13.19
2019-05-29T18:30:36.519Z,13.21
2019-05-29T18:33:05.050Z,13.20
2019-05-29T18:35:33.468Z,13.21
2019-05-29T18:38:01.890Z,13.21
2019-05-29T18:40:30.299Z,13.18
2019-05-29T18:42:58.701Z,13.17
2019-05-29T18:45:27.965Z,13.15
2019-05-29T18:47:57.248Z,13.12
2019-05-29T18:50:25.734Z,13.11
2019-05-29T18:52:54.107Z,13.10
2019-05-29T18:55:22.861Z,13.10
2019-05-29T18:57:51.292Z,13.09
2019-05-29T19:00:23.326Z,12.82
2019-05-29T19:02:51.798Z,13.09
2019-05-29T19:05:21.423Z,13.10
2019-05-29T19:07:49.861Z,13.11
2019-05-29T19:10:19.707Z,13.13
2019-05-29T19:12:48.097Z,13.13
2019-05-29T19:15:17.765Z,13.13
2019-05-29T19:17:46.166Z,13.13
2019-05-29T19:20:15.160Z,13.12
2019-05-29T19:22:43.546Z,13.10
2019-05-29T19:25:12.162Z,13.10
2019-05-29T19:27:42.250Z,13.09
2019-05-29T19:30:11.497Z,13.08
2019-05-29T19:32:39.878Z,12.78
2019-05-29T19:35:09.226Z,13.09
2019-05-29T19:37:37.604Z,13.11
2019-05-29T19:40:06.736Z,13.11
2019-05-29T19:42:35.124Z,12.80
2019-05-29T19:45:05.646Z,13.09
2019-05-29T19:47:34.929Z,13.08
2019-05-29T19:50:04.672Z,13.07
2019-05-29T19:52:33.329Z,13.04
2019-05-29T19:55:01.798Z,13.02
2019-05-29T19:57:46.526Z,13.00
2019-05-29T20:00:00.358Z,12.98
2019-05-29T20:02:30.473Z,12.99
2019-05-29T20:04:58.828Z,12.98
2019-05-29T20:07:27.224Z,12.97
2019-05-29T20:09:55.608Z,12.97
2019-05-29T20:12:23.995Z,12.96
2019-05-29T20:14:52.379Z,12.93
2019-05-29T20:17:20.768Z,12.92
2019-05-29T20:19:49.150Z,12.95
2019-05-29T20:22:17.538Z,12.97
2019-05-29T20:24:45.927Z,12.97
2019-05-29T20:27:14.306Z,12.96
2019-05-29T20:29:42.761Z,12.95
2019-05-29T20:32:11.151Z,12.93
2019-05-29T20:34:40.470Z,12.92
2019-05-29T20:37:08.862Z,12.91
2019-05-29T20:39:38.448Z,12.92
2019-05-29T20:42:06.943Z,12.92
2019-05-29T20:44:41.288Z,12.93
2019-05-29T20:47:09.673Z,12.94
2019-05-29T20:49:38.120Z,12.92
2019-05-29T20:52:06.537Z,12.90
2019-05-29T20:54:35.595Z,12.88
2019-05-29T20:57:05.689Z,12.87
2019-05-29T20:59:34.092Z,12.69
2019-05-29T21:02:02.494Z,12.90
2019-05-29T21:04:32.917Z,12.91
2019-05-29T21:07:01.016Z,12.90
2019-05-29T21:09:29.428Z,12.87
2019-05-29T21:11:57.776Z,12.84
2019-05-29T21:14:26.174Z,12.82
2019-05-29T21:16:54.554Z,12.76
2019-05-29T21:19:22.944Z,12.74
2019-05-29T21:21:51.324Z,12.72
2019-05-29T21:24:20.601Z,12.69
2019-05-29T21:26:48.984Z,12.68
2019-05-29T21:29:17.369Z,12.69
2019-05-29T21:31:45.836Z,12.68
2019-05-29T21:34:14.232Z,12.69
2019-05-29T21:36:42.690Z,12.68
2019-05-29T21:39:11.143Z,12.66
2019-05-29T21:41:40.416Z,12.65
2019-05-29T21:44:08.786Z,12.63
2019-05-29T21:46:37.185Z,12.63
2019-05-29T21:49:05.665Z,12.61
2019-05-29T21:51:34.045Z,12.61
2019-05-29T21:54:02.440Z,12.62
2019-05-29T21:56:30.826Z,12.57
2019-05-29T21:59:03.900Z,12.54
2019-05-29T22:01:29.451Z,12.53
2019-05-29T22:03:57.903Z,12.52
2019-05-29T22:06:26.423Z,12.52
2019-05-29T22:08:54.876Z,12.48
2019-05-29T22:11:23.259Z,12.49
2019-05-29T22:13:52.364Z,12.49
2019-05-29T22:16:20.705Z,12.50
2019-05-29T22:18:49.157Z,12.50
2019-05-29T22:21:17.544Z,12.49
2019-05-29T22:23:45.926Z,12.45
2019-05-29T22:26:14.307Z,12.40
2019-05-29T22:28:42.701Z,12.36
2019-05-29T22:31:11.154Z,12.33
2019-05-29T22:33:39.602Z,12.31
2019-05-29T22:36:07.975Z,12.33
2019-05-29T22:38:36.372Z,12.29
2019-05-29T22:41:04.816Z,12.26
2019-05-29T22:43:33.220Z,12.23
2019-05-29T22:46:01.882Z,12.20
2019-05-29T22:48:30.254Z,12.18
2019-05-29T22:50:59.884Z,12.11
2019-05-29T22:53:28.303Z,11.58
2019-05-29T22:55:57.819Z,12.01
2019-05-29T22:58:26.246Z,12.01
2019-05-29T23:00:55.874Z,12.02
2019-05-29T23:03:24.381Z,12.02
2019-05-29T23:05:53.995Z,11.99
2019-05-29T23:08:22.626Z,12.02
2019-05-29T23:10:52.183Z,12.00
2019-05-29T23:13:20.581Z,12.00
2019-05-29T23:15:48.963Z,11.99
2019-05-29T23:18:17.341Z,11.99
2019-05-29T23:20:45.732Z,12.01
2019-05-29T23:23:14.191Z,12.03
2019-05-29T23:25:42.581Z,11.57
2019-05-29T23:28:11.027Z,12.01
2019-05-29T23:30:39.415Z,11.99
2019-05-29T23:33:07.793Z,11.96
2019-05-29T23:35:36.182Z,11.93
2019-05-29T23:38:04.564Z,11.90
2019-05-29T23:40:32.954Z,11.85
2019-05-29T23:43:01.606Z,11.82
2019-05-29T23:45:30.116Z,11.81
2019-05-29T23:47:59.624Z,11.79
2019-05-29T23:50:28.066Z,11.78
2019-05-29T23:52:57.839Z,11.72
2019-05-29T23:55:26.320Z,11.66
2019-05-29T23:57:55.665Z,11.61
